Terminal Aerodrome Forecast
Issued by NWS

Home | Current Version | Previous Version | Text Only | Print | Product List | Glossary On
Versions: 1 2 3 4 5 6 7 8 9 10 11 12 13 14 15 16 17 18 19 20 21 22
812
FTUS41 KCAR 101900 AAA
TAFBHB
TAF AMD
KBHB 101900Z 1019/1118 30011KT P6SM FEW030
     FM102200 31011G18KT P6SM SCT150
     FM110100 32010KT P6SM SCT130
     FM111400 30008KT P6SM SCT250=

USA.gov is the U.S. government's official web portal to all federal, state and local government web resources and services.